createdAt,value
2018-07-14T00:02:20.208Z,95173.16
2018-07-14T00:04:46.807Z,95175.30
2018-07-14T00:07:13.509Z,95173.97
2018-07-14T00:09:40.148Z,95172.20
2018-07-14T00:12:06.806Z,95176.64
2018-07-14T00:14:33.450Z,95178.58
2018-07-14T00:17:00.097Z,95172.38
2018-07-14T00:19:26.729Z,95176.17
2018-07-14T00:21:53.369Z,95171.45
2018-07-14T00:24:20.112Z,95169.79
2018-07-14T00:26:46.717Z,95166.13
2018-07-14T00:29:13.353Z,95165.73
2018-07-14T00:31:39.988Z,95167.18
2018-07-14T00:34:06.632Z,95163.20
2018-07-14T00:36:33.278Z,95163.47
2018-07-14T00:38:59.913Z,95160.80
2018-07-14T00:41:26.558Z,95165.78
2018-07-14T00:43:53.190Z,95159.52
2018-07-14T00:46:19.864Z,95150.48
2018-07-14T00:48:46.466Z,95157.11
2018-07-14T00:51:13.115Z,95153.70
2018-07-14T00:53:39.748Z,95156.30
2018-07-14T00:56:06.465Z,95158.21
2018-07-14T00:58:33.238Z,95156.13
2018-07-14T01:00:59.883Z,95152.81
2018-07-14T01:03:26.516Z,95148.52
2018-07-14T01:05:53.153Z,95146.31
2018-07-14T01:08:19.793Z,95150.23
2018-07-14T01:10:46.491Z,95149.65
2018-07-14T01:13:13.132Z,95150.14
2018-07-14T01:15:39.777Z,95150.84
2018-07-14T01:18:06.423Z,95147.67
2018-07-14T01:20:33.063Z,95145.52
2018-07-14T01:22:59.717Z,95147.62
2018-07-14T01:25:26.354Z,95147.88
2018-07-14T01:27:52.986Z,95146.80
2018-07-14T01:30:19.629Z,95145.03
2018-07-14T01:32:46.267Z,95145.99
2018-07-14T01:35:12.916Z,95149.09
2018-07-14T01:37:39.549Z,95153.13
2018-07-14T01:40:06.193Z,95155.80
2018-07-14T01:42:32.952Z,95165.88
2018-07-14T01:44:59.590Z,95166.48
2018-07-14T01:47:26.233Z,95169.42
2018-07-14T01:49:52.872Z,95175.38
2018-07-14T01:52:19.507Z,95172.70
2018-07-14T01:54:46.162Z,95168.52
2018-07-14T01:57:12.794Z,95176.50
2018-07-14T01:59:39.436Z,95173.86
2018-07-14T02:02:06.064Z,95173.52
2018-07-14T02:04:32.758Z,95168.46
2018-07-14T02:06:59.409Z,95174.09
2018-07-14T02:09:26.082Z,95172.84
2018-07-14T02:11:52.726Z,95174.23
2018-07-14T02:14:19.377Z,95187.97
2018-07-14T02:16:46.027Z,95177.58
2018-07-14T02:19:12.655Z,95178.66
2018-07-14T02:21:39.294Z,95173.98
2018-07-14T02:24:05.936Z,95175.11
2018-07-14T02:26:32.569Z,95178.16
2018-07-14T02:28:59.223Z,95168.26
2018-07-14T02:31:25.908Z,95172.20
2018-07-14T02:33:52.544Z,95171.83
2018-07-14T02:36:19.192Z,95180.42
2018-07-14T02:38:45.835Z,95179.55
2018-07-14T02:41:12.498Z,95171.83
2018-07-14T02:43:39.138Z,95176.56
2018-07-14T02:46:05.842Z,95173.84
2018-07-14T02:48:32.472Z,95160.47
2018-07-14T02:50:59.108Z,95172.96
2018-07-14T02:55:52.386Z,95167.01
2018-07-14T02:58:19.025Z,95172.59
2018-07-14T03:00:45.658Z,95176.02
2018-07-14T03:03:12.308Z,95173.66
2018-07-14T03:05:38.948Z,95172.64
2018-07-14T03:08:05.600Z,95166.80
2018-07-14T03:10:32.250Z,95175.75
2018-07-14T03:12:58.917Z,95170.61
2018-07-14T03:15:25.528Z,95166.80
2018-07-14T03:17:52.172Z,95170.17
2018-07-14T03:20:18.804Z,95170.06
2018-07-14T03:22:45.500Z,95166.86
2018-07-14T03:25:12.140Z,95173.28
2018-07-14T03:27:38.961Z,95174.62
2018-07-14T03:30:05.469Z,95170.81
2018-07-14T03:32:32.125Z,95177.69
2018-07-14T03:34:58.761Z,95178.16
2018-07-14T03:37:25.393Z,95177.41
2018-07-14T03:39:52.028Z,95179.44
2018-07-14T03:42:18.671Z,95177.75
2018-07-14T03:44:45.308Z,95182.45
2018-07-14T03:47:11.946Z,95182.80
2018-07-14T03:49:38.583Z,95179.38
2018-07-14T03:52:05.238Z,95184.64
2018-07-14T03:54:31.935Z,95186.17
2018-07-14T03:56:58.622Z,95187.25
2018-07-14T03:59:25.216Z,95189.06
2018-07-14T04:01:51.868Z,95188.12
2018-07-14T04:04:18.490Z,95190.54
2018-07-14T04:06:45.139Z,95188.27
2018-07-14T04:09:11.771Z,95185.40
2018-07-14T04:11:38.410Z,95195.50
2018-07-14T04:14:05.067Z,95195.54
2018-07-14T04:16:31.704Z,95192.80
2018-07-14T04:18:58.345Z,95184.83
2018-07-14T04:21:25.028Z,95198.20
2018-07-14T04:23:51.655Z,95201.47
2018-07-14T04:26:18.305Z,95199.70
2018-07-14T04:28:44.954Z,95203.67
2018-07-14T04:31:11.595Z,95201.31
2018-07-14T04:33:38.250Z,95198.38
2018-07-14T04:36:04.941Z,95200.81
2018-07-14T04:38:31.596Z,95196.63
2018-07-14T04:40:58.233Z,95197.05
2018-07-14T04:43:24.884Z,95203.06
2018-07-14T04:45:51.516Z,95199.66
2018-07-14T04:48:18.176Z,95201.94
2018-07-14T04:50:44.850Z,95206.71
2018-07-14T04:53:11.556Z,95202.63
2018-07-14T04:55:38.131Z,95201.54
2018-07-14T04:58:04.771Z,95197.41
2018-07-14T05:00:31.441Z,95198.69
2018-07-14T05:02:58.048Z,95194.88
2018-07-14T05:05:24.746Z,95200.68
2018-07-14T05:07:51.382Z,95198.00
2018-07-14T05:10:18.023Z,95194.91
2018-07-14T05:12:44.711Z,95193.45
2018-07-14T05:15:11.340Z,95198.72
2018-07-14T05:17:37.988Z,95197.38
2018-07-14T05:20:04.619Z,95192.34
2018-07-14T05:22:31.264Z,95195.58
2018-07-14T05:24:57.914Z,95195.47
2018-07-14T05:27:24.556Z,95201.73
2018-07-14T05:29:51.189Z,95204.01
2018-07-14T05:32:17.844Z,95197.07
2018-07-14T05:34:44.487Z,95201.55
2018-07-14T05:37:11.162Z,95205.72
2018-07-14T05:39:37.798Z,95203.25
2018-07-14T05:42:04.485Z,95202.20
2018-07-14T05:44:31.179Z,95199.81
2018-07-14T05:46:57.838Z,95199.50
2018-07-14T05:49:24.465Z,95202.94
2018-07-14T05:51:51.117Z,95208.97
2018-07-14T05:54:17.795Z,95207.63
2018-07-14T05:56:44.398Z,95213.83
2018-07-14T05:59:11.091Z,95212.05
2018-07-14T06:01:37.733Z,95208.02
2018-07-14T06:04:04.424Z,95213.38
2018-07-14T06:06:31.063Z,95215.84
2018-07-14T06:08:57.744Z,95215.55
2018-07-14T06:11:24.382Z,95218.50
2018-07-14T06:13:51.074Z,95216.53
2018-07-14T06:16:17.718Z,95214.38
2018-07-14T06:18:44.385Z,95220.37
2018-07-14T06:21:11.065Z,95224.78
2018-07-14T06:23:37.719Z,95230.72
2018-07-14T06:26:04.346Z,95227.58
2018-07-14T06:28:31.032Z,95231.80
2018-07-14T06:30:57.669Z,95225.85
2018-07-14T06:33:24.383Z,95225.86
2018-07-14T06:35:51.038Z,95220.81
2018-07-14T06:38:17.749Z,95222.41
2018-07-14T06:40:44.383Z,95224.45
2018-07-14T06:43:11.138Z,95228.53
2018-07-14T06:45:38.852Z,95226.82
2018-07-14T06:48:05.539Z,95222.36
2018-07-14T06:50:32.194Z,95230.09
2018-07-14T06:52:58.890Z,95227.63
2018-07-14T06:55:25.527Z,95226.69
2018-07-14T06:57:52.160Z,95227.37
2018-07-14T07:00:18.815Z,95232.27
2018-07-14T07:02:45.491Z,95222.50
2018-07-14T07:05:12.129Z,95234.22
2018-07-14T07:07:40.264Z,95226.98
2018-07-14T07:10:05.456Z,95228.27
2018-07-14T07:12:32.123Z,95236.23
2018-07-14T07:14:58.880Z,95241.41
2018-07-14T07:17:25.516Z,95239.02
2018-07-14T07:19:52.150Z,95238.82
2018-07-14T07:22:18.855Z,95234.32
2018-07-14T07:24:45.489Z,95235.88
2018-07-14T07:27:12.225Z,95235.86
2018-07-14T07:29:38.904Z,95228.91
2018-07-14T07:32:05.551Z,95226.86
2018-07-14T07:34:32.281Z,95219.99
2018-07-14T07:36:58.831Z,95223.00
2018-07-14T07:39:25.458Z,95221.25
2018-07-14T07:41:52.143Z,95220.50
2018-07-14T07:44:19.647Z,95227.03
2018-07-14T07:46:46.283Z,95229.83
2018-07-14T07:49:12.923Z,95230.36
2018-07-14T07:51:39.573Z,95223.88
2018-07-14T07:54:06.217Z,95221.58
2018-07-14T07:56:32.904Z,95218.25
2018-07-14T07:58:59.550Z,95222.45
2018-07-14T08:01:26.250Z,95222.79
2018-07-14T08:03:53.021Z,95215.45
2018-07-14T08:06:19.701Z,95214.65
2018-07-14T08:08:46.404Z,95224.54
2018-07-14T08:11:13.015Z,95222.23
2018-07-14T08:13:39.793Z,95220.03
2018-07-14T08:16:06.472Z,95225.08
2018-07-14T08:18:33.102Z,95220.50
2018-07-14T08:20:59.725Z,95226.42
2018-07-14T08:23:26.368Z,95226.21
2018-07-14T08:25:53.054Z,95213.55
2018-07-14T08:28:19.741Z,95214.62
2018-07-14T08:30:46.381Z,95208.45
2018-07-14T08:33:13.013Z,95217.46
2018-07-14T08:35:39.664Z,95212.70
2018-07-14T08:38:06.455Z,95221.27
2018-07-14T08:40:32.982Z,95217.11
2018-07-14T08:42:59.618Z,95218.43
2018-07-14T08:45:26.285Z,95217.70
2018-07-14T08:47:52.926Z,95212.83
2018-07-14T08:50:19.566Z,95216.58
2018-07-14T08:52:46.207Z,95216.20
2018-07-14T08:55:12.926Z,95213.28
2018-07-14T08:57:39.554Z,95212.13
2018-07-14T09:00:06.196Z,95213.87
2018-07-14T09:02:32.884Z,95214.05
2018-07-14T09:04:59.522Z,95217.16
2018-07-14T09:07:26.191Z,95222.42
2018-07-14T09:09:52.792Z,95224.45
2018-07-14T09:12:19.477Z,95216.55
2018-07-14T09:14:46.110Z,95207.98
2018-07-14T09:17:12.752Z,95210.94
2018-07-14T09:19:39.433Z,95214.58
2018-07-14T09:22:06.086Z,95211.61
2018-07-14T09:24:32.730Z,95206.73
2018-07-14T09:26:59.377Z,95208.36
2018-07-14T09:29:26.021Z,95206.32
2018-07-14T09:31:52.711Z,95203.95
2018-07-14T09:34:19.351Z,95203.75
2018-07-14T09:36:46.012Z,95202.17
2018-07-14T09:39:12.642Z,95199.34
2018-07-14T09:41:39.327Z,95206.91
2018-07-14T09:44:06.079Z,95204.65
2018-07-14T09:46:32.642Z,95202.73
2018-07-14T09:48:59.303Z,95198.66
2018-07-14T09:51:25.916Z,95190.64
2018-07-14T09:53:52.581Z,95192.32
2018-07-14T09:56:19.224Z,95195.00
2018-07-14T09:58:45.894Z,95189.36
2018-07-14T10:01:12.500Z,95187.01
2018-07-14T10:03:39.149Z,95185.67
2018-07-14T10:06:05.835Z,95184.37
2018-07-14T10:08:32.515Z,95181.00
2018-07-14T10:10:59.113Z,95180.62
2018-07-14T10:13:25.798Z,95189.11
2018-07-14T10:15:52.446Z,95184.92
2018-07-14T10:18:19.081Z,95190.19
2018-07-14T10:20:45.723Z,95182.60
2018-07-14T10:23:12.351Z,95173.13
2018-07-14T10:25:40.761Z,95182.87
2018-07-14T10:28:07.325Z,95180.48
2018-07-14T10:30:33.964Z,95174.41
2018-07-14T10:33:00.612Z,95181.53
2018-07-14T10:35:27.243Z,95179.99
2018-07-14T10:37:53.889Z,95179.77
2018-07-14T10:40:20.527Z,95176.88
2018-07-14T10:42:47.210Z,95180.52
2018-07-14T10:45:13.858Z,95175.58
2018-07-14T10:47:40.500Z,95179.13
2018-07-14T10:50:07.141Z,95176.77
2018-07-14T10:52:33.821Z,95175.81
2018-07-14T10:55:00.513Z,95179.44
2018-07-14T10:57:27.137Z,95171.13
2018-07-14T10:59:53.781Z,95164.28
2018-07-14T11:02:20.426Z,95161.06
2018-07-14T11:04:47.113Z,95160.56
2018-07-14T11:07:13.752Z,95161.87
2018-07-14T11:09:40.384Z,95161.75
2018-07-14T11:12:07.059Z,95160.63
2018-07-14T11:14:33.667Z,95154.81
2018-07-14T11:17:00.346Z,95153.71
2018-07-14T11:19:26.992Z,95155.25
2018-07-14T11:21:53.671Z,95153.71
2018-07-14T11:24:20.399Z,95152.27
2018-07-14T11:26:47.003Z,95149.16
2018-07-14T11:29:13.651Z,95154.61
2018-07-14T11:31:40.296Z,95144.39
2018-07-14T11:34:06.923Z,95146.48
2018-07-14T11:36:33.637Z,95140.99
2018-07-14T11:39:00.329Z,95139.08
2018-07-14T11:41:27.014Z,95147.21
2018-07-14T11:43:53.660Z,95136.75
2018-07-14T11:46:20.349Z,95129.06
2018-07-14T11:48:46.992Z,95128.19
2018-07-14T11:51:13.635Z,95119.25
2018-07-14T11:53:40.274Z,95120.53
2018-07-14T11:56:06.924Z,95119.30
2018-07-14T11:58:33.566Z,95124.45
2018-07-14T12:01:00.211Z,95117.85
2018-07-14T12:03:26.897Z,95120.03
2018-07-14T12:05:53.502Z,95120.96
2018-07-14T12:08:20.194Z,95119.50
2018-07-14T12:10:46.831Z,95114.95
2018-07-14T12:13:13.470Z,95113.50
2018-07-14T12:15:40.138Z,95113.62
2018-07-14T12:18:06.767Z,95117.89
2018-07-14T12:20:33.461Z,95109.91
2018-07-14T12:23:00.239Z,95106.77
2018-07-14T12:25:26.875Z,95110.51
2018-07-14T12:27:53.516Z,95112.38
2018-07-14T12:30:20.273Z,95110.56
2018-07-14T12:32:46.813Z,95114.05
2018-07-14T12:35:13.467Z,95105.52
2018-07-14T12:37:40.143Z,95108.09
2018-07-14T12:40:06.838Z,95106.02
2018-07-14T12:42:33.520Z,95105.14
2018-07-14T12:45:00.147Z,95107.67
2018-07-14T12:47:26.806Z,95107.47
2018-07-14T12:49:53.494Z,95104.04
2018-07-14T12:52:20.124Z,95099.86
2018-07-14T12:54:46.760Z,95095.36
2018-07-14T12:57:13.435Z,95101.64
2018-07-14T12:59:40.073Z,95098.61
2018-07-14T13:02:06.729Z,95093.53
2018-07-14T13:04:33.438Z,95088.34
2018-07-14T13:07:00.075Z,95083.95
2018-07-14T13:09:26.708Z,95079.28
2018-07-14T13:11:53.363Z,95082.35
2018-07-14T13:14:19.994Z,95084.22
2018-07-14T13:16:46.668Z,95073.59
2018-07-14T13:19:13.349Z,95072.89
2018-07-14T13:21:39.984Z,95069.59
2018-07-14T13:24:06.674Z,95069.97
2018-07-14T13:26:33.316Z,95064.59
2018-07-14T13:28:59.954Z,95063.05
2018-07-14T13:31:26.653Z,95066.52
2018-07-14T13:33:53.286Z,95063.63
2018-07-14T13:36:20.049Z,95066.75
2018-07-14T13:38:51.614Z,95064.42
2018-07-14T13:41:13.283Z,95066.63
2018-07-14T13:43:39.896Z,95063.33
2018-07-14T13:46:06.529Z,95063.03
2018-07-14T13:48:33.240Z,95061.00
2018-07-14T13:50:59.852Z,95057.78
2018-07-14T13:53:26.494Z,95069.10
2018-07-14T13:55:53.144Z,95065.77
2018-07-14T13:58:19.846Z,95062.52
2018-07-14T14:00:49.826Z,95065.12
2018-07-14T14:03:16.463Z,95055.37
2018-07-14T14:05:43.117Z,95057.03
2018-07-14T14:08:09.747Z,95052.84
2018-07-14T14:10:36.435Z,95050.06
2018-07-14T14:13:03.110Z,95041.56
2018-07-14T14:15:29.749Z,95048.41
2018-07-14T14:17:56.448Z,95044.12
2018-07-14T14:20:23.090Z,95040.20
2018-07-14T14:22:49.727Z,95042.14
2018-07-14T14:25:16.408Z,95041.50
2018-07-14T14:27:43.049Z,95041.50
2018-07-14T14:30:09.738Z,95042.20
2018-07-14T14:32:36.426Z,95050.06
2018-07-14T14:35:03.068Z,95043.10
2018-07-14T14:37:29.751Z,95046.00
2018-07-14T14:39:56.478Z,95049.37
2018-07-14T14:42:23.076Z,95045.56
2018-07-14T14:44:49.767Z,95038.17
2018-07-14T14:47:16.404Z,95038.45
2018-07-14T14:49:43.091Z,95035.50
2018-07-14T14:52:09.733Z,95038.11
2018-07-14T14:54:36.413Z,95029.78
2018-07-14T14:57:03.092Z,95030.51
2018-07-14T14:59:29.741Z,95029.88
2018-07-14T15:01:56.402Z,95030.25
2018-07-14T15:04:23.020Z,95023.43
2018-07-14T15:06:49.763Z,95024.03
2018-07-14T15:09:16.486Z,95024.99
2018-07-14T15:11:43.054Z,95024.63
2018-07-14T15:14:09.707Z,95025.75
2018-07-14T15:16:36.440Z,95022.64
2018-07-14T15:19:03.005Z,95020.77
2018-07-14T15:21:29.688Z,95024.80
2018-07-14T15:23:56.327Z,95022.27
2018-07-14T15:26:22.970Z,95024.19
2018-07-14T15:28:49.618Z,95019.86
2018-07-14T15:31:16.254Z,95018.62
2018-07-14T15:33:42.939Z,95014.38
2018-07-14T15:36:09.577Z,95015.28
2018-07-14T15:38:36.254Z,95009.80
2018-07-14T15:41:02.892Z,95009.69
2018-07-14T15:43:29.543Z,95006.58
2018-07-14T15:45:56.228Z,95004.23
2018-07-14T15:48:22.864Z,94995.81
2018-07-14T15:50:49.508Z,94996.66
2018-07-14T15:53:16.251Z,94990.34
2018-07-14T15:55:42.855Z,94991.41
2018-07-14T15:58:09.493Z,94991.27
2018-07-14T16:00:36.183Z,94989.27
2018-07-14T16:03:02.868Z,94999.19
2018-07-14T16:05:32.587Z,94993.36
2018-07-14T16:07:59.419Z,94997.36
2018-07-14T16:10:25.984Z,94998.38
2018-07-14T16:12:52.683Z,95001.02
2018-07-14T16:15:19.317Z,95000.72
2018-07-14T16:17:45.977Z,95001.85
2018-07-14T16:20:12.645Z,95004.89
2018-07-14T16:22:39.277Z,95006.37
2018-07-14T16:25:05.962Z,95003.94
2018-07-14T16:27:36.012Z,95001.61
2018-07-14T16:30:02.699Z,95003.30
2018-07-14T16:32:29.330Z,95005.27
2018-07-14T16:34:56.019Z,95001.09
2018-07-14T16:37:22.662Z,94999.55
2018-07-14T16:39:49.301Z,95000.89
2018-07-14T16:42:15.999Z,95002.39
2018-07-14T16:44:42.635Z,94999.05
2018-07-14T16:47:09.273Z,95007.73
2018-07-14T16:49:36.007Z,95007.09
2018-07-14T16:52:02.669Z,95006.65
2018-07-14T16:54:29.353Z,95008.36
2018-07-14T16:56:55.988Z,95008.86
2018-07-14T16:59:22.671Z,95012.27
2018-07-14T17:01:49.354Z,95006.61
2018-07-14T17:04:15.995Z,95011.70
2018-07-14T17:06:42.676Z,95013.34
2018-07-14T17:09:09.350Z,95006.27
2018-07-14T17:11:35.986Z,95007.95
2018-07-14T17:14:02.776Z,95008.52
2018-07-14T17:16:29.299Z,95013.27
2018-07-14T17:18:56.012Z,95003.73
2018-07-14T17:21:22.633Z,95015.91
2018-07-14T17:23:49.241Z,95007.58
2018-07-14T17:26:15.890Z,95007.32
2018-07-14T17:28:42.621Z,95010.59
2018-07-14T17:31:09.224Z,95014.02
2018-07-14T17:33:35.858Z,95010.91
2018-07-14T17:36:03.770Z,95014.07
2018-07-14T17:38:29.186Z,95013.44
2018-07-14T17:40:55.874Z,95002.81
2018-07-14T17:43:22.559Z,95015.47
2018-07-14T17:45:49.198Z,95010.67
2018-07-14T17:48:15.855Z,95016.66
2018-07-14T17:50:42.498Z,95014.13
2018-07-14T17:53:09.145Z,95009.81
2018-07-14T17:55:35.781Z,95014.37
2018-07-14T17:58:02.417Z,95017.10
2018-07-14T18:00:29.072Z,95015.14
2018-07-14T18:02:55.714Z,95015.95
2018-07-14T18:05:22.376Z,95021.50
2018-07-14T18:07:49.000Z,95025.69
2018-07-14T18:10:15.642Z,95026.56
2018-07-14T18:12:43.653Z,95029.77
2018-07-14T18:15:08.971Z,95027.50
2018-07-14T18:17:35.575Z,95034.13
2018-07-14T18:20:02.234Z,95031.86
2018-07-14T18:22:28.895Z,95031.13
2018-07-14T18:24:55.523Z,95030.92
2018-07-14T18:27:22.161Z,95032.59
2018-07-14T18:29:48.810Z,95040.88
2018-07-14T18:32:15.447Z,95040.96
2018-07-14T18:34:42.094Z,95040.94
2018-07-14T18:37:08.739Z,95050.62
2018-07-14T18:39:35.377Z,95053.92
2018-07-14T18:42:02.012Z,95057.81
2018-07-14T18:44:28.651Z,95057.69
2018-07-14T18:46:55.309Z,95063.70
2018-07-14T18:49:21.950Z,95059.58
2018-07-14T18:51:48.602Z,95069.13
2018-07-14T18:54:15.230Z,95071.84
2018-07-14T18:56:41.882Z,95073.94
2018-07-14T18:59:08.545Z,95075.77
2018-07-14T19:01:35.147Z,95075.02
2018-07-14T19:04:01.777Z,95084.56
2018-07-14T19:06:28.460Z,95080.19
2018-07-14T19:08:55.111Z,95087.92
2018-07-14T19:11:21.707Z,95091.53
2018-07-14T19:13:48.351Z,95088.74
2018-07-14T19:16:15.014Z,95091.80
2018-07-14T19:18:41.617Z,95096.03
2018-07-14T19:21:08.282Z,95098.30
2018-07-14T19:23:34.917Z,95100.97
2018-07-14T19:26:01.676Z,95098.50
2018-07-14T19:28:28.178Z,95103.87
2018-07-14T19:30:54.826Z,95103.12
2018-07-14T19:33:21.460Z,95113.80
2018-07-14T19:35:48.127Z,95111.70
2018-07-14T19:38:14.730Z,95112.44
2018-07-14T19:40:41.374Z,95108.63
2018-07-14T19:43:08.010Z,95111.22
2018-07-14T19:45:34.668Z,95110.38
2018-07-14T19:48:01.334Z,95106.89
2018-07-14T19:50:27.952Z,95111.09
2018-07-14T19:52:54.593Z,95109.36
2018-07-14T19:55:21.239Z,95110.38
2018-07-14T19:57:47.885Z,95116.20
2018-07-14T20:00:14.519Z,95115.77
2018-07-14T20:02:41.179Z,95118.82
2018-07-14T20:05:07.817Z,95124.19
2018-07-14T20:07:34.448Z,95122.16
2018-07-14T20:10:01.102Z,95124.07
2018-07-14T20:12:27.797Z,95129.09
2018-07-14T20:14:54.434Z,95135.97
2018-07-14T20:17:21.065Z,95135.45
2018-07-14T20:19:47.719Z,95132.98
2018-07-14T20:22:14.359Z,95139.02
2018-07-14T20:24:41.004Z,95143.67
2018-07-14T20:27:07.640Z,95139.25
2018-07-14T20:29:34.301Z,95135.59
2018-07-14T20:32:00.928Z,95142.66
2018-07-14T20:34:27.573Z,95139.55
2018-07-14T20:36:54.205Z,95138.06
2018-07-14T20:39:20.840Z,95139.11
2018-07-14T20:41:47.607Z,95142.33
2018-07-14T20:44:14.129Z,95145.44
2018-07-14T20:46:40.763Z,95141.31
2018-07-14T20:49:07.426Z,95139.28
2018-07-14T20:51:34.042Z,95136.06
2018-07-14T20:54:00.713Z,95138.64
2018-07-14T20:56:27.310Z,95138.76
2018-07-14T20:58:53.995Z,95144.91
2018-07-14T21:01:20.676Z,95139.34
2018-07-14T21:03:47.315Z,95142.88
2018-07-14T21:06:14.001Z,95142.70
2018-07-14T21:08:40.629Z,95140.62
2018-07-14T21:11:07.259Z,95137.77
2018-07-14T21:13:33.896Z,95138.59
2018-07-14T21:16:00.547Z,95139.72
2018-07-14T21:18:27.189Z,95135.36
2018-07-14T21:20:53.975Z,95132.31
2018-07-14T21:23:20.475Z,95127.81
2018-07-14T21:25:47.116Z,95134.52
2018-07-14T21:28:13.743Z,95130.16
2018-07-14T21:30:40.380Z,95129.15
2018-07-14T21:33:07.038Z,95130.80
2018-07-14T21:35:33.684Z,95122.81
2018-07-14T21:38:00.331Z,95131.42
2018-07-14T21:40:26.967Z,95127.66
2018-07-14T21:42:53.613Z,95123.30
2018-07-14T21:45:20.248Z,95128.11
2018-07-14T21:47:46.889Z,95130.63
2018-07-14T21:50:13.551Z,95123.97
2018-07-14T21:52:40.208Z,95116.59
2018-07-14T21:55:06.848Z,95120.93
2018-07-14T21:57:33.485Z,95124.70
2018-07-14T22:00:00.170Z,95122.66
2018-07-14T22:02:26.847Z,95121.50
2018-07-14T22:04:53.445Z,95126.27
2018-07-14T22:07:20.167Z,95117.84
2018-07-14T22:09:46.736Z,95119.28
2018-07-14T22:12:13.425Z,95120.81
2018-07-14T22:14:40.030Z,95113.23
2018-07-14T22:17:06.660Z,95117.32
2018-07-14T22:19:33.324Z,95117.48
2018-07-14T22:21:59.962Z,95108.91
2018-07-14T22:24:26.599Z,95111.45
2018-07-14T22:26:53.265Z,95110.59
2018-07-14T22:29:19.950Z,95114.42
2018-07-14T22:31:46.559Z,95101.11
2018-07-14T22:34:13.195Z,95108.53
2018-07-14T22:36:39.841Z,95106.48
2018-07-14T22:39:06.471Z,95113.30
2018-07-14T22:41:33.115Z,95108.84
2018-07-14T22:43:59.763Z,95113.38
2018-07-14T22:46:26.408Z,95109.47
2018-07-14T22:48:53.049Z,95104.64
2018-07-14T22:51:19.698Z,95103.45
2018-07-14T22:53:46.372Z,95097.84
2018-07-14T22:56:13.001Z,95108.30
2018-07-14T22:58:39.773Z,95099.20
2018-07-14T23:01:06.392Z,95106.64
2018-07-14T23:03:33.014Z,95113.27
2018-07-14T23:05:59.657Z,95112.35
2018-07-14T23:08:26.293Z,95114.13
2018-07-14T23:10:52.939Z,95109.48
2018-07-14T23:13:19.585Z,95104.12
2018-07-14T23:15:46.226Z,95111.20
2018-07-14T23:18:12.892Z,95118.38
2018-07-14T23:20:39.533Z,95115.77
2018-07-14T23:23:06.168Z,95114.81
2018-07-14T23:25:32.809Z,95105.39
2018-07-14T23:27:59.457Z,95115.27
2018-07-14T23:30:26.366Z,95110.70
2018-07-14T23:32:52.973Z,95115.89
2018-07-14T23:35:19.617Z,95120.97
2018-07-14T23:37:46.259Z,95110.09
2018-07-14T23:40:12.916Z,95112.36
2018-07-14T23:42:39.567Z,95108.56
2018-07-14T23:45:06.250Z,95115.66
2018-07-14T23:47:32.898Z,95114.24
2018-07-14T23:49:59.571Z,95118.89
2018-07-14T23:52:29.515Z,95110.02
2018-07-14T23:54:56.149Z,95115.33
2018-07-14T23:57:22.828Z,95103.55
2018-07-14T23:59:49.465Z,95102.41
